Terminal Aerodrome Forecast
Issued by NWS North Platte, NE

Home | Current Version | Previous Version | Text Only | Print | Product List | Glossary Off
Versions: 1 2 3 4 5 6 7 8 9 10 11 12 13 14 15 16 17 18

893
FTUS43 KLBF 240520
TAFVTN
TAF
KVTN 240520Z 2406/2506 16017G23KT P6SM SCT200
     FM240700 22014KT P6SM SCT070 BKN120
     FM241400 25012KT P6SM SCT100
     FM250000 28013KT P6SM BKN250=

USA.gov is the U.S. government's official web portal to all federal, state and local government web resources and services.